sensor_id;sensor_type;location;lat;lon;timestamp;P1;durP1;ratioP1;P2;durP2;ratioP2
23242;SDS011;11790;49.578;11.214;2023-06-10T00:03:04;6.50;;;5.25;;
23242;SDS011;11790;49.578;11.214;2023-06-10T00:08:05;9.13;;;5.38;;
23242;SDS011;11790;49.578;11.214;2023-06-10T00:13:08;7.13;;;5.50;;
23242;SDS011;11790;49.578;11.214;2023-06-10T00:18:08;8.38;;;5.68;;
23242;SDS011;11790;49.578;11.214;2023-06-10T00:23:09;7.38;;;5.78;;
23242;SDS011;11790;49.578;11.214;2023-06-10T00:28:10;12.55;;;6.50;;
23242;SDS011;11790;49.578;11.214;2023-06-10T00:33:10;6.32;;;5.43;;
23242;SDS011;11790;49.578;11.214;2023-06-10T00:38:10;8.60;;;6.00;;
23242;SDS011;11790;49.578;11.214;2023-06-10T00:43:10;8.88;;;6.93;;
23242;SDS011;11790;49.578;11.214;2023-06-10T00:48:10;11.05;;;6.95;;
23242;SDS011;11790;49.578;11.214;2023-06-10T00:53:10;8.93;;;6.80;;
23242;SDS011;11790;49.578;11.214;2023-06-10T00:58:11;9.82;;;6.60;;
23242;SDS011;11790;49.578;11.214;2023-06-10T01:03:11;8.90;;;6.67;;
23242;SDS011;11790;49.578;11.214;2023-06-10T01:08:33;8.95;;;6.45;;
23242;SDS011;11790;49.578;11.214;2023-06-10T01:13:32;10.27;;;6.32;;
23242;SDS011;11790;49.578;11.214;2023-06-10T01:18:33;8.23;;;6.20;;
23242;SDS011;11790;49.578;11.214;2023-06-10T01:23:33;9.85;;;6.32;;
23242;SDS011;11790;49.578;11.214;2023-06-10T01:28:54;7.55;;;6.20;;
23242;SDS011;11790;49.578;11.214;2023-06-10T01:33:57;8.40;;;6.68;;
23242;SDS011;11790;49.578;11.214;2023-06-10T01:38:57;7.45;;;5.80;;
23242;SDS011;11790;49.578;11.214;2023-06-10T01:43:59;11.13;;;6.88;;
23242;SDS011;11790;49.578;11.214;2023-06-10T01:48:59;9.90;;;6.03;;
23242;SDS011;11790;49.578;11.214;2023-06-10T01:53:59;8.35;;;5.90;;
23242;SDS011;11790;49.578;11.214;2023-06-10T01:59:00;9.53;;;6.27;;
23242;SDS011;11790;49.578;11.214;2023-06-10T02:04:00;9.48;;;6.47;;
23242;SDS011;11790;49.578;11.214;2023-06-10T02:09:00;8.40;;;7.05;;
23242;SDS011;11790;49.578;11.214;2023-06-10T02:14:00;8.93;;;6.83;;
23242;SDS011;11790;49.578;11.214;2023-06-10T02:19:01;8.82;;;6.75;;
23242;SDS011;11790;49.578;11.214;2023-06-10T02:24:03;8.90;;;6.43;;
23242;SDS011;11790;49.578;11.214;2023-06-10T02:29:03;8.35;;;6.57;;
23242;SDS011;11790;49.578;11.214;2023-06-10T02:34:03;7.60;;;5.82;;
23242;SDS011;11790;49.578;11.214;2023-06-10T02:39:03;8.48;;;6.47;;
23242;SDS011;11790;49.578;11.214;2023-06-10T02:44:04;8.65;;;6.55;;
23242;SDS011;11790;49.578;11.214;2023-06-10T02:49:04;8.50;;;6.15;;
23242;SDS011;11790;49.578;11.214;2023-06-10T02:54:04;7.22;;;6.22;;
23242;SDS011;11790;49.578;11.214;2023-06-10T02:59:04;7.93;;;6.60;;
23242;SDS011;11790;49.578;11.214;2023-06-10T03:04:07;8.95;;;6.63;;
23242;SDS011;11790;49.578;11.214;2023-06-10T03:09:07;9.60;;;7.53;;
23242;SDS011;11790;49.578;11.214;2023-06-10T03:14:07;8.80;;;6.70;;
23242;SDS011;11790;49.578;11.214;2023-06-10T03:19:07;10.20;;;6.93;;
23242;SDS011;11790;49.578;11.214;2023-06-10T03:24:08;8.67;;;6.80;;
23242;SDS011;11790;49.578;11.214;2023-06-10T03:29:08;11.23;;;7.05;;
23242;SDS011;11790;49.578;11.214;2023-06-10T03:34:08;10.73;;;6.90;;
23242;SDS011;11790;49.578;11.214;2023-06-10T03:39:08;8.77;;;6.68;;
23242;SDS011;11790;49.578;11.214;2023-06-10T03:44:09;9.82;;;7.43;;
23242;SDS011;11790;49.578;11.214;2023-06-10T03:49:09;9.40;;;7.32;;
23242;SDS011;11790;49.578;11.214;2023-06-10T03:54:10;9.73;;;7.57;;
23242;SDS011;11790;49.578;11.214;2023-06-10T03:59:10;9.40;;;7.32;;
23242;SDS011;11790;49.578;11.214;2023-06-10T04:04:13;8.55;;;6.45;;
23242;SDS011;11790;49.578;11.214;2023-06-10T04:09:13;9.82;;;6.68;;
23242;SDS011;11790;49.578;11.214;2023-06-10T04:14:13;9.65;;;7.15;;
23242;SDS011;11790;49.578;11.214;2023-06-10T04:19:14;9.10;;;7.40;;
23242;SDS011;11790;49.578;11.214;2023-06-10T04:24:14;9.80;;;7.75;;
23242;SDS011;11790;49.578;11.214;2023-06-10T04:29:14;8.98;;;7.40;;
23242;SDS011;11790;49.578;11.214;2023-06-10T04:34:14;10.85;;;8.23;;
23242;SDS011;11790;49.578;11.214;2023-06-10T04:39:14;13.82;;;8.40;;
23242;SDS011;11790;49.578;11.214;2023-06-10T04:44:16;11.93;;;7.97;;
23242;SDS011;11790;49.578;11.214;2023-06-10T04:49:16;10.95;;;7.75;;
23242;SDS011;11790;49.578;11.214;2023-06-10T04:54:17;9.50;;;7.78;;
23242;SDS011;11790;49.578;11.214;2023-06-10T04:59:17;11.00;;;8.57;;
23242;SDS011;11790;49.578;11.214;2023-06-10T05:04:17;9.95;;;7.68;;
23242;SDS011;11790;49.578;11.214;2023-06-10T05:09:17;12.35;;;9.35;;
23242;SDS011;11790;49.578;11.214;2023-06-10T05:14:17;11.38;;;8.27;;
23242;SDS011;11790;49.578;11.214;2023-06-10T05:19:19;10.38;;;8.40;;
23242;SDS011;11790;49.578;11.214;2023-06-10T05:24:19;12.43;;;9.27;;
23242;SDS011;11790;49.578;11.214;2023-06-10T05:29:19;10.40;;;8.97;;
23242;SDS011;11790;49.578;11.214;2023-06-10T05:34:19;11.02;;;8.18;;
23242;SDS011;11790;49.578;11.214;2023-06-10T05:39:20;10.95;;;8.63;;
23242;SDS011;11790;49.578;11.214;2023-06-10T05:44:20;9.48;;;8.07;;
23242;SDS011;11790;49.578;11.214;2023-06-10T05:49:20;10.63;;;7.68;;
23242;SDS011;11790;49.578;11.214;2023-06-10T05:54:20;8.63;;;7.07;;
23242;SDS011;11790;49.578;11.214;2023-06-10T05:59:20;8.52;;;7.60;;
23242;SDS011;11790;49.578;11.214;2023-06-10T06:04:22;8.88;;;6.70;;
23242;SDS011;11790;49.578;11.214;2023-06-10T06:09:22;6.40;;;5.78;;
23242;SDS011;11790;49.578;11.214;2023-06-10T06:14:23;6.70;;;6.00;;
23242;SDS011;11790;49.578;11.214;2023-06-10T06:19:23;6.55;;;5.20;;
23242;SDS011;11790;49.578;11.214;2023-06-10T06:24:23;6.50;;;5.38;;
23242;SDS011;11790;49.578;11.214;2023-06-10T06:29:23;5.17;;;4.60;;
23242;SDS011;11790;49.578;11.214;2023-06-10T06:34:23;5.88;;;4.07;;
23242;SDS011;11790;49.578;11.214;2023-06-10T06:39:24;8.18;;;4.50;;
23242;SDS011;11790;49.578;11.214;2023-06-10T06:44:24;4.80;;;4.20;;
23242;SDS011;11790;49.578;11.214;2023-06-10T06:49:24;4.28;;;3.85;;
23242;SDS011;11790;49.578;11.214;2023-06-10T06:54:24;4.07;;;3.67;;
23242;SDS011;11790;49.578;11.214;2023-06-10T06:59:24;4.28;;;3.80;;
23242;SDS011;11790;49.578;11.214;2023-06-10T07:04:25;4.07;;;3.65;;
23242;SDS011;11790;49.578;11.214;2023-06-10T07:09:25;4.20;;;3.80;;
23242;SDS011;11790;49.578;11.214;2023-06-10T07:14:25;5.00;;;3.47;;
23242;SDS011;11790;49.578;11.214;2023-06-10T07:19:26;5.35;;;4.15;;
23242;SDS011;11790;49.578;11.214;2023-06-10T07:24:26;3.72;;;3.42;;
23242;SDS011;11790;49.578;11.214;2023-06-10T07:29:26;3.90;;;2.97;;
23242;SDS011;11790;49.578;11.214;2023-06-10T07:34:26;3.63;;;3.30;;
23242;SDS011;11790;49.578;11.214;2023-06-10T07:39:26;3.33;;;2.90;;
23242;SDS011;11790;49.578;11.214;2023-06-10T07:44:26;3.83;;;2.60;;
23242;SDS011;11790;49.578;11.214;2023-06-10T07:49:27;3.65;;;2.88;;
23242;SDS011;11790;49.578;11.214;2023-06-10T07:54:27;6.93;;;2.65;;
23242;SDS011;11790;49.578;11.214;2023-06-10T07:59:27;3.03;;;2.58;;
23242;SDS011;11790;49.578;11.214;2023-06-10T08:04:27;3.00;;;2.67;;
23242;SDS011;11790;49.578;11.214;2023-06-10T08:09:27;5.18;;;2.42;;
23242;SDS011;11790;49.578;11.214;2023-06-10T08:14:28;2.37;;;2.17;;
23242;SDS011;11790;49.578;11.214;2023-06-10T08:19:28;3.20;;;2.45;;
23242;SDS011;11790;49.578;11.214;2023-06-10T08:24:28;2.30;;;2.10;;
23242;SDS011;11790;49.578;11.214;2023-06-10T08:29:29;2.83;;;2.10;;
23242;SDS011;11790;49.578;11.214;2023-06-10T08:34:33;2.20;;;2.00;;
23242;SDS011;11790;49.578;11.214;2023-06-10T08:39:33;3.58;;;1.70;;
23242;SDS011;11790;49.578;11.214;2023-06-10T08:44:33;2.10;;;1.90;;
23242;SDS011;11790;49.578;11.214;2023-06-10T08:49:38;1.90;;;1.70;;
23242;SDS011;11790;49.578;11.214;2023-06-10T08:54:42;2.13;;;1.92;;
23242;SDS011;11790;49.578;11.214;2023-06-10T08:59:42;1.95;;;1.73;;
23242;SDS011;11790;49.578;11.214;2023-06-10T09:04:43;2.22;;;1.80;;
23242;SDS011;11790;49.578;11.214;2023-06-10T09:09:44;2.00;;;1.80;;
23242;SDS011;11790;49.578;11.214;2023-06-10T09:14:44;2.08;;;1.88;;
23242;SDS011;11790;49.578;11.214;2023-06-10T09:19:45;2.00;;;1.80;;
23242;SDS011;11790;49.578;11.214;2023-06-10T09:24:46;2.10;;;1.90;;
23242;SDS011;11790;49.578;11.214;2023-06-10T09:29:47;2.63;;;2.10;;
23242;SDS011;11790;49.578;11.214;2023-06-10T09:34:48;2.45;;;2.10;;
23242;SDS011;11790;49.578;11.214;2023-06-10T09:40:01;3.72;;;1.95;;
23242;SDS011;11790;49.578;11.214;2023-06-10T09:45:02;2.13;;;1.80;;
23242;SDS011;11790;49.578;11.214;2023-06-10T09:50:02;2.28;;;1.95;;
23242;SDS011;11790;49.578;11.214;2023-06-10T09:55:03;2.05;;;1.88;;
23242;SDS011;11790;49.578;11.214;2023-06-10T10:00:07;2.30;;;2.10;;
23242;SDS011;11790;49.578;11.214;2023-06-10T10:05:08;3.92;;;2.38;;
23242;SDS011;11790;49.578;11.214;2023-06-10T10:10:08;2.50;;;2.25;;
23242;SDS011;11790;49.578;11.214;2023-06-10T10:15:10;2.15;;;1.95;;
23242;SDS011;11790;49.578;11.214;2023-06-10T10:20:12;2.40;;;2.13;;
23242;SDS011;11790;49.578;11.214;2023-06-10T10:25:55;3.50;;;2.33;;
23242;SDS011;11790;49.578;11.214;2023-06-10T10:30:46;2.38;;;2.17;;
23242;SDS011;11790;49.578;11.214;2023-06-10T10:35:46;2.03;;;1.75;;
23242;SDS011;11790;49.578;11.214;2023-06-10T10:40:47;2.20;;;2.00;;
23242;SDS011;11790;49.578;11.214;2023-06-10T10:45:57;2.47;;;2.20;;
23242;SDS011;11790;49.578;11.214;2023-06-10T10:50:57;2.40;;;2.20;;
23242;SDS011;11790;49.578;11.214;2023-06-10T10:56:08;2.45;;;2.25;;
23242;SDS011;11790;49.578;11.214;2023-06-10T11:01:12;2.80;;;2.50;;
23242;SDS011;11790;49.578;11.214;2023-06-10T11:06:17;2.20;;;2.00;;
23242;SDS011;11790;49.578;11.214;2023-06-10T11:11:18;2.72;;;2.28;;
23242;SDS011;11790;49.578;11.214;2023-06-10T11:16:20;2.50;;;2.30;;
23242;SDS011;11790;49.578;11.214;2023-06-10T11:21:20;2.90;;;2.53;;
23242;SDS011;11790;49.578;11.214;2023-06-10T11:31:33;2.33;;;2.10;;
23242;SDS011;11790;49.578;11.214;2023-06-10T11:36:34;2.40;;;2.20;;
23242;SDS011;11790;49.578;11.214;2023-06-10T11:41:37;2.67;;;2.00;;
23242;SDS011;11790;49.578;11.214;2023-06-10T11:46:37;2.15;;;1.95;;
23242;SDS011;11790;49.578;11.214;2023-06-10T11:51:38;3.25;;;2.05;;
23242;SDS011;11790;49.578;11.214;2023-06-10T11:56:40;2.10;;;1.90;;
23242;SDS011;11790;49.578;11.214;2023-06-10T12:01:44;2.63;;;2.10;;
23242;SDS011;11790;49.578;11.214;2023-06-10T12:06:48;1.67;;;1.58;;
23242;SDS011;11790;49.578;11.214;2023-06-10T12:11:49;1.60;;;1.50;;
23242;SDS011;11790;49.578;11.214;2023-06-10T12:16:50;1.83;;;1.38;;
23242;SDS011;11790;49.578;11.214;2023-06-10T12:21:50;1.92;;;1.42;;
23242;SDS011;11790;49.578;11.214;2023-06-10T12:26:53;1.65;;;1.55;;
23242;SDS011;11790;49.578;11.214;2023-06-10T12:36:57;1.98;;;1.70;;
23242;SDS011;11790;49.578;11.214;2023-06-10T12:41:58;1.80;;;1.60;;
23242;SDS011;11790;49.578;11.214;2023-06-10T12:46:58;3.45;;;1.88;;
23242;SDS011;11790;49.578;11.214;2023-06-10T12:51:58;1.83;;;1.73;;
23242;SDS011;11790;49.578;11.214;2023-06-10T12:56:58;1.80;;;1.67;;
23242;SDS011;11790;49.578;11.214;2023-06-10T13:01:59;6.13;;;1.73;;
23242;SDS011;11790;49.578;11.214;2023-06-10T13:06:59;2.03;;;1.73;;
23242;SDS011;11790;49.578;11.214;2023-06-10T13:11:59;1.80;;;1.55;;
23242;SDS011;11790;49.578;11.214;2023-06-10T13:17:00;1.67;;;1.50;;
23242;SDS011;11790;49.578;11.214;2023-06-10T13:22:00;1.70;;;1.60;;
23242;SDS011;11790;49.578;11.214;2023-06-10T13:27:01;1.50;;;1.40;;
23242;SDS011;11790;49.578;11.214;2023-06-10T13:32:01;1.88;;;1.77;;
23242;SDS011;11790;49.578;11.214;2023-06-10T13:37:02;1.57;;;1.40;;
23242;SDS011;11790;49.578;11.214;2023-06-10T13:42:04;1.98;;;1.50;;
23242;SDS011;11790;49.578;11.214;2023-06-10T13:47:04;2.28;;;1.45;;
23242;SDS011;11790;49.578;11.214;2023-06-10T13:52:05;1.80;;;1.30;;
23242;SDS011;11790;49.578;11.214;2023-06-10T13:57:05;1.33;;;1.23;;
23242;SDS011;11790;49.578;11.214;2023-06-10T14:02:06;6.55;;;2.50;;
23242;SDS011;11790;49.578;11.214;2023-06-10T14:07:06;2.85;;;1.40;;
23242;SDS011;11790;49.578;11.214;2023-06-10T14:12:06;2.10;;;1.40;;
23242;SDS011;11790;49.578;11.214;2023-06-10T14:17:07;1.40;;;1.30;;
23242;SDS011;11790;49.578;11.214;2023-06-10T14:22:07;1.42;;;1.33;;
23242;SDS011;11790;49.578;11.214;2023-06-10T14:27:08;1.40;;;1.20;;
23242;SDS011;11790;49.578;11.214;2023-06-10T14:32:08;1.30;;;1.20;;
23242;SDS011;11790;49.578;11.214;2023-06-10T14:37:09;1.80;;;1.60;;
23242;SDS011;11790;49.578;11.214;2023-06-10T14:42:09;5.68;;;2.20;;
23242;SDS011;11790;49.578;11.214;2023-06-10T14:47:10;1.80;;;1.67;;
23242;SDS011;11790;49.578;11.214;2023-06-10T14:52:10;2.10;;;2.00;;
23242;SDS011;11790;49.578;11.214;2023-06-10T14:57:10;3.30;;;1.90;;
23242;SDS011;11790;49.578;11.214;2023-06-10T15:02:11;1.90;;;1.80;;
23242;SDS011;11790;49.578;11.214;2023-06-10T15:07:11;3.85;;;2.65;;
23242;SDS011;11790;49.578;11.214;2023-06-10T15:12:11;2.75;;;2.50;;
23242;SDS011;11790;49.578;11.214;2023-06-10T15:17:11;3.58;;;2.47;;
23242;SDS011;11790;49.578;11.214;2023-06-10T15:22:11;3.40;;;3.10;;
23242;SDS011;11790;49.578;11.214;2023-06-10T15:27:13;3.60;;;3.25;;
23242;SDS011;11790;49.578;11.214;2023-06-10T15:32:13;3.77;;;3.47;;
23242;SDS011;11790;49.578;11.214;2023-06-10T15:37:14;7.50;;;4.03;;
23242;SDS011;11790;49.578;11.214;2023-06-10T15:42:14;5.07;;;4.40;;
23242;SDS011;11790;49.578;11.214;2023-06-10T15:47:14;6.70;;;4.13;;
23242;SDS011;11790;49.578;11.214;2023-06-10T15:52:15;4.30;;;3.90;;
23242;SDS011;11790;49.578;11.214;2023-06-10T15:57:15;4.82;;;3.65;;
23242;SDS011;11790;49.578;11.214;2023-06-10T16:02:16;4.05;;;3.67;;
23242;SDS011;11790;49.578;11.214;2023-06-10T16:07:16;8.05;;;3.65;;
23242;SDS011;11790;49.578;11.214;2023-06-10T16:12:17;9.93;;;4.55;;
23242;SDS011;11790;49.578;11.214;2023-06-10T16:17:17;4.70;;;3.40;;
23242;SDS011;11790;49.578;11.214;2023-06-10T16:22:17;3.78;;;3.47;;
23242;SDS011;11790;49.578;11.214;2023-06-10T16:27:17;4.82;;;3.63;;
23242;SDS011;11790;49.578;11.214;2023-06-10T16:32:19;3.78;;;3.42;;
23242;SDS011;11790;49.578;11.214;2023-06-10T16:37:19;3.10;;;2.80;;
23242;SDS011;11790;49.578;11.214;2023-06-10T16:42:19;4.30;;;3.08;;
23242;SDS011;11790;49.578;11.214;2023-06-10T16:47:20;4.40;;;3.28;;
23242;SDS011;11790;49.578;11.214;2023-06-10T16:52:20;4.60;;;3.65;;
23242;SDS011;11790;49.578;11.214;2023-06-10T16:57:20;5.07;;;3.00;;
23242;SDS011;11790;49.578;11.214;2023-06-10T17:02:20;3.20;;;2.83;;
23242;SDS011;11790;49.578;11.214;2023-06-10T17:07:22;3.53;;;2.77;;
23242;SDS011;11790;49.578;11.214;2023-06-10T17:12:23;4.60;;;3.20;;
23242;SDS011;11790;49.578;11.214;2023-06-10T17:17:23;4.32;;;3.22;;
23242;SDS011;11790;49.578;11.214;2023-06-10T17:22:23;5.50;;;3.63;;
23242;SDS011;11790;49.578;11.214;2023-06-10T17:27:23;4.72;;;3.60;;
23242;SDS011;11790;49.578;11.214;2023-06-10T17:32:24;4.03;;;3.65;;
23242;SDS011;11790;49.578;11.214;2023-06-10T17:37:24;6.15;;;4.43;;
23242;SDS011;11790;49.578;11.214;2023-06-10T17:42:24;6.60;;;4.78;;
23242;SDS011;11790;49.578;11.214;2023-06-10T17:47:25;4.55;;;4.07;;
23242;SDS011;11790;49.578;11.214;2023-06-10T17:52:25;5.55;;;4.05;;
23242;SDS011;11790;49.578;11.214;2023-06-10T17:57:26;6.18;;;4.05;;
23242;SDS011;11790;49.578;11.214;2023-06-10T18:02:26;4.80;;;3.92;;
23242;SDS011;11790;49.578;11.214;2023-06-10T18:07:26;6.43;;;4.22;;
23242;SDS011;11790;49.578;11.214;2023-06-10T18:12:26;6.72;;;4.82;;
23242;SDS011;11790;49.578;11.214;2023-06-10T18:17:26;8.30;;;4.38;;
23242;SDS011;11790;49.578;11.214;2023-06-10T18:22:27;5.35;;;4.63;;
23242;SDS011;11790;49.578;11.214;2023-06-10T18:27:27;5.25;;;4.15;;
23242;SDS011;11790;49.578;11.214;2023-06-10T18:32:27;6.70;;;4.70;;
23242;SDS011;11790;49.578;11.214;2023-06-10T18:37:27;6.22;;;4.10;;
23242;SDS011;11790;49.578;11.214;2023-06-10T18:42:27;4.50;;;4.07;;
23242;SDS011;11790;49.578;11.214;2023-06-10T18:47:28;7.18;;;4.30;;
23242;SDS011;11790;49.578;11.214;2023-06-10T18:52:28;5.35;;;4.20;;
23242;SDS011;11790;49.578;11.214;2023-06-10T18:57:28;4.77;;;3.80;;
23242;SDS011;11790;49.578;11.214;2023-06-10T19:02:28;5.68;;;4.60;;
23242;SDS011;11790;49.578;11.214;2023-06-10T19:07:29;5.25;;;4.25;;
23242;SDS011;11790;49.578;11.214;2023-06-10T19:12:29;6.97;;;4.28;;
23242;SDS011;11790;49.578;11.214;2023-06-10T19:17:29;5.15;;;4.25;;
23242;SDS011;11790;49.578;11.214;2023-06-10T19:22:29;6.18;;;4.68;;
23242;SDS011;11790;49.578;11.214;2023-06-10T19:27:30;5.50;;;4.35;;
23242;SDS011;11790;49.578;11.214;2023-06-10T19:32:30;5.85;;;4.30;;
23242;SDS011;11790;49.578;11.214;2023-06-10T19:37:30;7.57;;;4.38;;
23242;SDS011;11790;49.578;11.214;2023-06-10T19:42:31;5.85;;;4.72;;
23242;SDS011;11790;49.578;11.214;2023-06-10T19:47:31;5.95;;;4.65;;
23242;SDS011;11790;49.578;11.214;2023-06-10T19:52:31;6.05;;;4.53;;
23242;SDS011;11790;49.578;11.214;2023-06-10T19:57:32;5.22;;;4.47;;
23242;SDS011;11790;49.578;11.214;2023-06-10T20:02:32;5.05;;;4.50;;
23242;SDS011;11790;49.578;11.214;2023-06-10T20:07:32;7.10;;;4.75;;
23242;SDS011;11790;49.578;11.214;2023-06-10T20:12:33;5.00;;;4.50;;
23242;SDS011;11790;49.578;11.214;2023-06-10T20:17:33;5.50;;;4.63;;
23242;SDS011;11790;49.578;11.214;2023-06-10T20:22:34;7.35;;;4.32;;
23242;SDS011;11790;49.578;11.214;2023-06-10T20:27:34;6.07;;;4.68;;
23242;SDS011;11790;49.578;11.214;2023-06-10T20:32:34;9.25;;;4.80;;
23242;SDS011;11790;49.578;11.214;2023-06-10T20:37:35;6.47;;;4.47;;
23242;SDS011;11790;49.578;11.214;2023-06-10T20:42:35;10.27;;;4.57;;
23242;SDS011;11790;49.578;11.214;2023-06-10T20:47:35;6.28;;;4.38;;
23242;SDS011;11790;49.578;11.214;2023-06-10T20:52:35;5.30;;;4.60;;
23242;SDS011;11790;49.578;11.214;2023-06-10T20:57:36;5.30;;;4.80;;
23242;SDS011;11790;49.578;11.214;2023-06-10T21:02:36;7.03;;;4.93;;
23242;SDS011;11790;49.578;11.214;2023-06-10T21:07:36;7.95;;;5.72;;
23242;SDS011;11790;49.578;11.214;2023-06-10T21:12:37;4.85;;;4.28;;
23242;SDS011;11790;49.578;11.214;2023-06-10T21:17:37;5.32;;;4.65;;
23242;SDS011;11790;49.578;11.214;2023-06-10T21:22:37;5.32;;;4.55;;
23242;SDS011;11790;49.578;11.214;2023-06-10T21:27:37;5.32;;;4.40;;
23242;SDS011;11790;49.578;11.214;2023-06-10T21:32:37;6.55;;;4.80;;
23242;SDS011;11790;49.578;11.214;2023-06-10T21:37:38;6.45;;;5.40;;
23242;SDS011;11790;49.578;11.214;2023-06-10T21:42:38;7.25;;;4.93;;
23242;SDS011;11790;49.578;11.214;2023-06-10T21:47:39;5.57;;;4.75;;
23242;SDS011;11790;49.578;11.214;2023-06-10T21:52:39;7.10;;;4.38;;
23242;SDS011;11790;49.578;11.214;2023-06-10T21:57:39;8.23;;;4.60;;
23242;SDS011;11790;49.578;11.214;2023-06-10T22:02:40;6.97;;;4.97;;
23242;SDS011;11790;49.578;11.214;2023-06-10T22:07:40;8.32;;;4.78;;
23242;SDS011;11790;49.578;11.214;2023-06-10T22:12:40;5.82;;;4.85;;
23242;SDS011;11790;49.578;11.214;2023-06-10T22:17:41;7.75;;;5.35;;
23242;SDS011;11790;49.578;11.214;2023-06-10T22:22:41;6.10;;;5.15;;
23242;SDS011;11790;49.578;11.214;2023-06-10T22:27:41;7.00;;;5.30;;
23242;SDS011;11790;49.578;11.214;2023-06-10T22:32:41;6.63;;;5.22;;
23242;SDS011;11790;49.578;11.214;2023-06-10T22:37:41;7.55;;;5.45;;
23242;SDS011;11790;49.578;11.214;2023-06-10T22:42:41;5.90;;;5.30;;
23242;SDS011;11790;49.578;11.214;2023-06-10T22:47:42;8.93;;;5.20;;
23242;SDS011;11790;49.578;11.214;2023-06-10T22:52:42;5.97;;;5.13;;
23242;SDS011;11790;49.578;11.214;2023-06-10T22:57:42;10.05;;;5.53;;
23242;SDS011;11790;49.578;11.214;2023-06-10T23:02:42;6.32;;;4.93;;
23242;SDS011;11790;49.578;11.214;2023-06-10T23:07:42;9.20;;;5.53;;
23242;SDS011;11790;49.578;11.214;2023-06-10T23:12:42;6.72;;;5.88;;
23242;SDS011;11790;49.578;11.214;2023-06-10T23:17:43;7.53;;;6.00;;
23242;SDS011;11790;49.578;11.214;2023-06-10T23:22:45;7.65;;;6.05;;
23242;SDS011;11790;49.578;11.214;2023-06-10T23:27:51;9.77;;;6.30;;
23242;SDS011;11790;49.578;11.214;2023-06-10T23:32:52;6.47;;;5.50;;
23242;SDS011;11790;49.578;11.214;2023-06-10T23:37:52;7.15;;;5.13;;
23242;SDS011;11790;49.578;11.214;2023-06-10T23:42:52;7.03;;;6.10;;
23242;SDS011;11790;49.578;11.214;2023-06-10T23:47:52;6.45;;;5.50;;
23242;SDS011;11790;49.578;11.214;2023-06-10T23:52:53;8.32;;;6.20;;
23242;SDS011;11790;49.578;11.214;2023-06-10T23:57:53;8.23;;;5.88;;
